OOCL Oakland — 3EKJ6 — position and weather

sailwx.info

Track history (hours):
 
Tides and Currents Weather Stations Pressure Air Temp Water Temp Dewpoint Dewpoint Depression Visibility Wind Speed Wind Dir Waves Ship Positions

OOCL Oakland

Last reported at 2015-May-26 11:32 UTC. Time now 2015-May-28 02:05 UTC.
Position N 22°07' E 114°23'.

Length 280 m; draft 11.6 m.

Type: Ship. MMSI: 372703235.

Date/timePositionNaut miles runAvg speedWind from/ knotsBaromVisibWave heightAir tempDewpointWater temp
2015-May-26 11:32N 22°07' E 114°23'1812.9
2015-May-26 10:08N 22°16' E 114°06'4 6.2
2015-May-26 09:33N 22°20' E 114°07'0 0.4
2015-May-26 08:28N 22°20' E 114°08'0 0.0
2015-May-26 07:31N 22°20' E 114°08'0 0.0
2015-May-26 06:22N 22°20' E 114°08'0 0.0
2015-May-26 05:25N 22°20' E 114°08'0 0.0
2015-May-26 04:28N 22°20' E 114°08'0 0.0
2015-May-26 03:22N 22°20' E 114°08'0 0.0
2015-May-26 02:28N 22°20' E 114°08'0 0.0
2015-May-26 01:28N 22°20' E 114°08'0 0.0
2015-May-26 00:25N 22°20' E 114°08'0 0.0
2015-May-25 23:19N 22°20' E 114°08'0 0.0
2015-May-25 22:31N 22°20' E 114°08'0 0.0
2015-May-25 21:31N 22°20' E 114°08'0 0.0
2015-May-25 20:31N 22°20' E 114°08'0 0.0
2015-May-25 19:33N 22°20' E 114°08'3 3.1
2015-May-25 18:33N 22°20' E 114°05'10 9.9
2015-May-25 17:32N 22°23' E 113°54'4 4.2
2015-May-25 16:30N 22°27' E 113°54'0 0.0
2015-May-25 15:30N 22°27' E 113°54'0 0.0
2015-May-25 14:30N 22°27' E 113°54'0 0.0
2015-May-25 13:30N 22°27' E 113°54'0 0.0
2015-May-25 12:30N 22°27' E 113°54'0 0.0
2015-May-25 11:30N 22°27' E 113°54'0 0.0
2015-May-25 10:30N 22°27' E 113°54'0 0.0
2015-May-25 09:30N 22°27' E 113°54'0 0.0
2015-May-25 08:30N 22°27' E 113°54'0 0.0
2015-May-25 07:30N 22°27' E 113°54'0 0.0
2015-May-25 06:30N 22°27' E 113°54'0 0.0
2015-May-25 05:30N 22°27' E 113°54'0 0.0
2015-May-25 04:30N 22°27' E 113°54'0 0.0
2015-May-25 03:30N 22°27' E 113°54'0 0.0
2015-May-25 02:30N 22°27' E 113°54'0 0.0
2015-May-25 01:30N 22°27' E 113°54'0 0.0
2015-May-25 00:30N 22°27' E 113°54'0 0.0
2015-May-24 23:33N 22°27' E 113°54'4 4.3
2015-May-24 22:32N 22°23' E 113°54'10 9.7
2015-May-24 21:28N 22°20' E 114°05'9 9.4
2015-May-24 20:32N 22°13' E 114°10'6 5.9
2015-May-24 19:33N 22°09' E 114°15'6 6.2
2015-May-24 18:33N 22°09' E 114°22'24311.4
2015-May-23 21:13N 23°45' E 118°23'1014.4
2015-May-23 20:32N 23°52' E 118°31'3414.5
2015-May-23 18:13N 24°15' E 118°58'1514.4
2015-May-23 17:09N 24°26' E 119°09'1214.4
2015-May-23 16:19N 24°34' E 119°19'41615.9
2015-May-22 14:11N 30°35' E 123°13'1417.8
2015-May-22 13:23N 30°50' E 123°10'1719.8
2015-May-22 12:31N 31°03' E 122°58'1819.0
2015-May-22 11:33N 31°05' E 122°37'1313.5
2015-May-22 10:33N 31°06' E 122°22'1414.3
2015-May-22 09:33N 31°13' E 122°07'1414.3
2015-May-22 08:33N 31°16' E 121°51'1010.0
2015-May-22 07:33N 31°20' E 121°40'0 0.1
2015-May-22 06:31N 31°20' E 121°40'0 0.0
2015-May-22 05:31N 31°20' E 121°40'0 0.0
2015-May-22 04:31N 31°20' E 121°40'0 0.0
2015-May-22 03:31N 31°20' E 121°40'0 0.0
2015-May-22 02:31N 31°20' E 121°40'0 0.0
2015-May-22 01:31N 31°20' E 121°40'0 0.0
2015-May-22 00:31N 31°20' E 121°40'0 0.0
2015-May-21 23:31N 31°20' E 121°40'0 0.0
2015-May-21 22:31N 31°20' E 121°40'0 0.0
2015-May-21 21:31N 31°20' E 121°40'0 0.0
2015-May-21 20:28N 31°20' E 121°40'0 0.0
2015-May-21 19:28N 31°20' E 121°40'0 0.0
2015-May-21 18:25N 31°20' E 121°40'1 0.7
2015-May-21 17:33N 31°21' E 121°40'9 9.2
2015-May-21 16:33N 31°17' E 121°50'1110.5
2015-May-21 15:33N 31°15' E 122°02'1010.1
2015-May-21 14:33N 31°10' E 122°12'1111.0
2015-May-21 13:33N 31°06' E 122°24'11 9.7
2015-May-21 12:26N 31°07' E 122°37'5 1.3
2015-May-21 08:24N 31°11' E 122°41'0 0.1
2015-May-21 06:33N 31°11' E 122°41'0 0.0
2015-May-20 22:27N 31°11' E 122°41'0 0.0
2015-May-20 21:03N 31°11' E 122°41'0 0.0
2015-May-20 13:09N 31°11' E 122°41'0 0.1
2015-May-20 11:21N 31°11' E 122°41'0 0.0
2015-May-20 10:21N 31°11' E 122°41'0 0.1
2015-May-20 09:33N 31°11' E 122°41'0 0.1
2015-May-20 08:27N 31°11' E 122°41'0 0.0
2015-May-20 07:33N 31°11' E 122°41'0 0.2
2015-May-20 06:33N 31°11' E 122°41'0 0.1
2015-May-20 05:33N 31°11' E 122°41'0 0.1
2015-May-20 04:33N 31°11' E 122°41'0 0.0
2015-May-20 03:27N 31°11' E 122°41'0 0.0
2015-May-20 01:24N 31°11' E 122°41'0 0.1
2015-May-19 23:09N 31°11' E 122°41'0 0.1
2015-May-19 21:30N 31°11' E 122°41'0 0.1
2015-May-19 20:33N 31°11' E 122°41'0 0.1
2015-May-19 19:33N 31°11' E 122°41'0 0.1
2015-May-19 18:33N 31°11' E 122°41'0 0.1
2015-May-19 16:03N 31°11' E 122°41'0 0.1
2015-May-19 12:09N 31°11' E 122°41'0 0.1
2015-May-19 11:27N 31°11' E 122°41'0 0.1
2015-May-19 10:30N 31°11' E 122°41'0 0.1
2015-May-19 09:33N 31°11' E 122°41'0 0.1
2015-May-19 08:24N 31°11' E 122°41'0 0.1
2015-May-19 07:15N 31°11' E 122°41'0 0.1
2015-May-19 06:21N 31°11' E 122°41'0 0.1
2015-May-19 05:33N 31°11' E 122°41'0 0.0
2015-May-18 23:33N 31°11' E 122°41'0 0.2
2015-May-18 22:33N 31°11' E 122°41'0 0.0
2015-May-18 20:21N 31°11' E 122°41'0 0.1
2015-May-18 19:15N 31°11' E 122°41'0 0.1
2015-May-18 17:09N 31°11' E 122°41'0 0.1
2015-May-18 13:27N 31°11' E 122°41'0 0.1
2015-May-18 11:33N 31°11' E 122°41'0 0.1
2015-May-18 10:18N 31°11' E 122°41'0 0.1
2015-May-18 09:33N 31°11' E 122°41'0 0.0
2015-May-18 08:33N 31°11' E 122°41'0 0.1
2015-May-18 06:27N 31°11' E 122°41'0 0.0
2015-May-17 23:15N 31°11' E 122°41'0 0.1
2015-May-17 22:30N 31°11' E 122°41'0 0.1
2015-May-17 21:03N 31°11' E 122°41'0 0.0
2015-May-17 20:27N 31°11' E 122°41'0 0.1
2015-May-17 18:12N 31°11' E 122°41'0 0.0
2015-May-17 11:30N 31°11' E 122°41'0 0.2
2015-May-17 10:33N 31°11' E 122°41'0 0.2
2015-May-17 09:33N 31°11' E 122°41'0 0.1
2015-May-17 08:33N 31°11' E 122°41'0 0.1
2015-May-17 07:33N 31°11' E 122°41'0 0.0
2015-May-17 06:33N 31°11' E 122°41'0 0.1
2015-May-17 05:33N 31°11' E 122°41'0 0.1
2015-May-17 04:33N 31°11' E 122°41'0 0.1
2015-May-17 03:33N 31°11' E 122°41'0 0.1
2015-May-17 02:18N 31°11' E 122°41'0 0.0
2015-May-17 01:30N 31°11' E 122°41'0 0.0
2015-May-16 23:18N 31°11' E 122°41'0 0.1
2015-May-16 22:33N 31°11' E 122°41'0 0.1
2015-May-16 21:33N 31°11' E 122°41'1 1.2
2015-May-16 20:33N 31°09' E 122°41'10 9.7
2015-May-16 19:33N 31°05' E 122°31'1211.9
2015-May-16 18:33N 31°07' E 122°17'1515.0
2015-May-16 17:33N 31°14' E 122°02'1514.6
2015-May-16 16:33N 31°18' E 121°45'10 9.7
2015-May-16 15:33N 31°22' E 121°35'0 0.2
2015-May-16 14:33N 31°22' E 121°35'0 0.0
2015-May-16 13:33N 31°22' E 121°35'0 0.0
2015-May-16 12:33N 31°22' E 121°35'0 0.0
2015-May-16 11:33N 31°22' E 121°35'  
Track history (hours):
 
Tides and Currents Weather Stations Pressure Air Temp Water Temp Dewpoint Dewpoint Depression Visibility Wind Speed Wind Dir Waves Ship Positions

OOCL Oakland

Last reported at 2015-May-26 11:32 UTC. Time now 2015-May-28 02:05 UTC.
Position N 22°07' E 114°23'.

Length 280 m; draft 11.6 m.

Type: Ship. MMSI: 372703235.

Date/timePositionNaut miles runAvg speedWind from/ knotsBaromVisibWave heightAir tempDewpointWater temp
2015-May-26 11:32N 22°07' E 114°23'1812.9
2015-May-26 10:08N 22°16' E 114°06'4 6.2
2015-May-26 09:33N 22°20' E 114°07'0 0.4
2015-May-26 08:28N 22°20' E 114°08'0 0.0
2015-May-26 07:31N 22°20' E 114°08'0 0.0
2015-May-26 06:22N 22°20' E 114°08'0 0.0
2015-May-26 05:25N 22°20' E 114°08'0 0.0
2015-May-26 04:28N 22°20' E 114°08'0 0.0
2015-May-26 03:22N 22°20' E 114°08'0 0.0
2015-May-26 02:28N 22°20' E 114°08'0 0.0
2015-May-26 01:28N 22°20' E 114°08'0 0.0
2015-May-26 00:25N 22°20' E 114°08'0 0.0
2015-May-25 23:19N 22°20' E 114°08'0 0.0
2015-May-25 22:31N 22°20' E 114°08'0 0.0
2015-May-25 21:31N 22°20' E 114°08'0 0.0
2015-May-25 20:31N 22°20' E 114°08'0 0.0
2015-May-25 19:33N 22°20' E 114°08'3 3.1
2015-May-25 18:33N 22°20' E 114°05'10 9.9
2015-May-25 17:32N 22°23' E 113°54'4 4.2
2015-May-25 16:30N 22°27' E 113°54'0 0.0
2015-May-25 15:30N 22°27' E 113°54'0 0.0
2015-May-25 14:30N 22°27' E 113°54'0 0.0
2015-May-25 13:30N 22°27' E 113°54'0 0.0
2015-May-25 12:30N 22°27' E 113°54'0 0.0
2015-May-25 11:30N 22°27' E 113°54'0 0.0
2015-May-25 10:30N 22°27' E 113°54'0 0.0
2015-May-25 09:30N 22°27' E 113°54'0 0.0
2015-May-25 08:30N 22°27' E 113°54'0 0.0
2015-May-25 07:30N 22°27' E 113°54'0 0.0
2015-May-25 06:30N 22°27' E 113°54'0 0.0
2015-May-25 05:30N 22°27' E 113°54'0 0.0
2015-May-25 04:30N 22°27' E 113°54'0 0.0
2015-May-25 03:30N 22°27' E 113°54'0 0.0
2015-May-25 02:30N 22°27' E 113°54'0 0.0
2015-May-25 01:30N 22°27' E 113°54'0 0.0
2015-May-25 00:30N 22°27' E 113°54'0 0.0
2015-May-24 23:33N 22°27' E 113°54'4 4.3
2015-May-24 22:32N 22°23' E 113°54'10 9.7
2015-May-24 21:28N 22°20' E 114°05'9 9.4
2015-May-24 20:32N 22°13' E 114°10'6 5.9
2015-May-24 19:33N 22°09' E 114°15'6 6.2
2015-May-24 18:33N 22°09' E 114°22'24311.4
2015-May-23 21:13N 23°45' E 118°23'1014.4
2015-May-23 20:32N 23°52' E 118°31'3414.5
2015-May-23 18:13N 24°15' E 118°58'1514.4
2015-May-23 17:09N 24°26' E 119°09'1214.4
2015-May-23 16:19N 24°34' E 119°19'41615.9
2015-May-22 14:11N 30°35' E 123°13'1417.8
2015-May-22 13:23N 30°50' E 123°10'1719.8
2015-May-22 12:31N 31°03' E 122°58'1819.0
2015-May-22 11:33N 31°05' E 122°37'1313.5
2015-May-22 10:33N 31°06' E 122°22'1414.3
2015-May-22 09:33N 31°13' E 122°07'1414.3
2015-May-22 08:33N 31°16' E 121°51'1010.0
2015-May-22 07:33N 31°20' E 121°40'0 0.1
2015-May-22 06:31N 31°20' E 121°40'0 0.0
2015-May-22 05:31N 31°20' E 121°40'0 0.0
2015-May-22 04:31N 31°20' E 121°40'0 0.0
2015-May-22 03:31N 31°20' E 121°40'0 0.0
2015-May-22 02:31N 31°20' E 121°40'0 0.0
2015-May-22 01:31N 31°20' E 121°40'0 0.0
2015-May-22 00:31N 31°20' E 121°40'0 0.0
2015-May-21 23:31N 31°20' E 121°40'0 0.0
2015-May-21 22:31N 31°20' E 121°40'0 0.0
2015-May-21 21:31N 31°20' E 121°40'0 0.0
2015-May-21 20:28N 31°20' E 121°40'0 0.0
2015-May-21 19:28N 31°20' E 121°40'0 0.0
2015-May-21 18:25N 31°20' E 121°40'1 0.7
2015-May-21 17:33N 31°21' E 121°40'9 9.2
2015-May-21 16:33N 31°17' E 121°50'1110.5
2015-May-21 15:33N 31°15' E 122°02'1010.1
2015-May-21 14:33N 31°10' E 122°12'1111.0
2015-May-21 13:33N 31°06' E 122°24'11 9.7
2015-May-21 12:26N 31°07' E 122°37'5 1.3
2015-May-21 08:24N 31°11' E 122°41'0 0.1
2015-May-21 06:33N 31°11' E 122°41'0 0.0
2015-May-20 22:27N 31°11' E 122°41'0 0.0
2015-May-20 21:03N 31°11' E 122°41'0 0.0
2015-May-20 13:09N 31°11' E 122°41'0 0.1
2015-May-20 11:21N 31°11' E 122°41'0 0.0
2015-May-20 10:21N 31°11' E 122°41'0 0.1
2015-May-20 09:33N 31°11' E 122°41'0 0.1
2015-May-20 08:27N 31°11' E 122°41'0 0.0
2015-May-20 07:33N 31°11' E 122°41'0 0.2
2015-May-20 06:33N 31°11' E 122°41'0 0.1
2015-May-20 05:33N 31°11' E 122°41'0 0.1
2015-May-20 04:33N 31°11' E 122°41'0 0.0
2015-May-20 03:27N 31°11' E 122°41'0 0.0
2015-May-20 01:24N 31°11' E 122°41'0 0.1
2015-May-19 23:09N 31°11' E 122°41'0 0.1
2015-May-19 21:30N 31°11' E 122°41'0 0.1
2015-May-19 20:33N 31°11' E 122°41'0 0.1
2015-May-19 19:33N 31°11' E 122°41'0 0.1
2015-May-19 18:33N 31°11' E 122°41'0 0.1
2015-May-19 16:03N 31°11' E 122°41'0 0.1
2015-May-19 12:09N 31°11' E 122°41'0 0.1
2015-May-19 11:27N 31°11' E 122°41'0 0.1
2015-May-19 10:30N 31°11' E 122°41'0 0.1
2015-May-19 09:33N 31°11' E 122°41'0 0.1
2015-May-19 08:24N 31°11' E 122°41'0 0.1
2015-May-19 07:15N 31°11' E 122°41'0 0.1
2015-May-19 06:21N 31°11' E 122°41'0 0.1
2015-May-19 05:33N 31°11' E 122°41'0 0.0
2015-May-18 23:33N 31°11' E 122°41'0 0.2
2015-May-18 22:33N 31°11' E 122°41'0 0.0
2015-May-18 20:21N 31°11' E 122°41'0 0.1
2015-May-18 19:15N 31°11' E 122°41'0 0.1
2015-May-18 17:09N 31°11' E 122°41'0 0.1
2015-May-18 13:27N 31°11' E 122°41'0 0.1
2015-May-18 11:33N 31°11' E 122°41'0 0.1
2015-May-18 10:18N 31°11' E 122°41'0 0.1
2015-May-18 09:33N 31°11' E 122°41'0 0.0
2015-May-18 08:33N 31°11' E 122°41'0 0.1
2015-May-18 06:27N 31°11' E 122°41'0 0.0
2015-May-17 23:15N 31°11' E 122°41'0 0.1
2015-May-17 22:30N 31°11' E 122°41'0 0.1
2015-May-17 21:03N 31°11' E 122°41'0 0.0
2015-May-17 20:27N 31°11' E 122°41'0 0.1
2015-May-17 18:12N 31°11' E 122°41'0 0.0
2015-May-17 11:30N 31°11' E 122°41'0 0.2
2015-May-17 10:33N 31°11' E 122°41'0 0.2
2015-May-17 09:33N 31°11' E 122°41'0 0.1
2015-May-17 08:33N 31°11' E 122°41'0 0.1
2015-May-17 07:33N 31°11' E 122°41'0 0.0
2015-May-17 06:33N 31°11' E 122°41'0 0.1
2015-May-17 05:33N 31°11' E 122°41'0 0.1
2015-May-17 04:33N 31°11' E 122°41'0 0.1
2015-May-17 03:33N 31°11' E 122°41'0 0.1
2015-May-17 02:18N 31°11' E 122°41'0 0.0
2015-May-17 01:30N 31°11' E 122°41'0 0.0
2015-May-16 23:18N 31°11' E 122°41'0 0.1
2015-May-16 22:33N 31°11' E 122°41'0 0.1
2015-May-16 21:33N 31°11' E 122°41'1 1.2
2015-May-16 20:33N 31°09' E 122°41'10 9.7
2015-May-16 19:33N 31°05' E 122°31'1211.9
2015-May-16 18:33N 31°07' E 122°17'1515.0
2015-May-16 17:33N 31°14' E 122°02'1514.6
2015-May-16 16:33N 31°18' E 121°45'10 9.7
2015-May-16 15:33N 31°22' E 121°35'0 0.2
2015-May-16 14:33N 31°22' E 121°35'0 0.0
2015-May-16 13:33N 31°22' E 121°35'0 0.0
2015-May-16 12:33N 31°22' E 121°35'0 0.0
2015-May-16 11:33N 31°22' E 121°35'  

Dump ship's entire track history